Nomadic Bergen — 2BYA3 — position and weather

sailwx.info

Track history (hours):
 
Tides and Currents Weather Stations Pressure Air Temp Water Temp Dewpoint Dewpoint Depression Visibility Wind Speed Wind Dir Waves Ship Positions

Nomadic Bergen

Last reported at 2018-Jun-17 18:34 UTC. Time now 2018-Jun-18 02:13 UTC.
Position N 40°41' W 010°07'.

Length 108 m; draft 7.3 m.

Type: Ship. MMSI: 235070364.

Date/timePositionNaut miles runAvg speedWind from/ knotsBaromVisibWave heightAir tempDewpointWater temp
2018-Jun-17 18:34N 40°41' W 010°07'1 9.6
2018-Jun-17 18:27N 40°42' W 010°07'5 9.4
2018-Jun-17 17:55N 40°47' W 010°07'4 9.3
2018-Jun-17 17:28N 40°52' W 010°08'4 9.2
2018-Jun-17 17:00N 40°56' W 010°07'5 9.0
2018-Jun-17 16:30N 41°00' W 010°07'397 8.5
2018-Jun-15 17:48N 47°16' W 007°09'48 7.8
2018-Jun-15 11:38N 47°59' W 006°36'6 8.9
2018-Jun-15 10:58N 48°04' W 006°32'54 8.9
2018-Jun-15 04:53N 48°51' W 005°51'38 7.8
2018-Jun-14 23:58N 49°14' W 005°03'54 8.0
2018-Jun-14 17:10N 49°41' W 003°51'1 6.5
2018-Jun-14 17:00N 49°41' W 003°49'4 7.1
2018-Jun-14 16:29N 49°43' W 003°44'4 7.9
2018-Jun-14 15:55N 49°45' W 003°38'4 8.8
2018-Jun-14 15:31N 49°47' W 003°34'5 9.9
2018-Jun-14 15:00N 49°50' W 003°27'510.7
2018-Jun-14 14:31N 49°53' W 003°20'611.2
2018-Jun-14 14:00N 49°55' W 003°12'611.2
2018-Jun-14 13:30N 49°58' W 003°05'611.1
2018-Jun-14 13:00N 50°00' W 002°57'510.8
2018-Jun-14 12:30N 50°02' W 002°49'510.5
2018-Jun-14 11:59N 50°03' W 002°41'5 9.8
2018-Jun-14 11:30N 50°04' W 002°34'5 8.9
2018-Jun-14 11:00N 50°06' W 002°27'4 7.9
2018-Jun-14 10:30N 50°06' W 002°21'4 7.1
2018-Jun-14 10:00N 50°07' W 002°16'3 6.1
2018-Jun-14 09:31N 50°08' W 002°11'3 5.4
2018-Jun-14 09:00N 50°09' W 002°07'3 5.1
2018-Jun-14 08:30N 50°09' W 002°03'2 4.9
2018-Jun-14 08:00N 50°10' W 001°59'2 5.0
2018-Jun-14 07:30N 50°11' W 001°55'3 5.2
2018-Jun-14 07:00N 50°11' W 001°52'3 5.6
2018-Jun-14 06:30N 50°12' W 001°47'3 6.5
2018-Jun-14 06:00N 50°13' W 001°43'4 7.6
2018-Jun-14 05:30N 50°14' W 001°37'4 8.6
2018-Jun-14 05:00N 50°15' W 001°31'5 9.7
2018-Jun-14 04:30N 50°17' W 001°23'510.8
2018-Jun-14 04:00N 50°19' W 001°15'611.9
2018-Jun-14 03:30N 50°20' W 001°06'712.7
2018-Jun-14 02:58N 50°22' W 000°56'712.5
2018-Jun-14 02:26N 50°24' W 000°46'712.3
2018-Jun-14 01:49N 50°26' W 000°35'412.0
2018-Jun-14 01:30N 50°27' W 000°29'611.6
2018-Jun-14 01:01N 50°29' W 000°20'611.0
2018-Jun-14 00:29N 50°30' W 000°11'510.5
2018-Jun-14 00:00N 50°32' W 000°04'5 9.9
2018-Jun-13 23:29N 50°33' E 000°04'5 9.4
2018-Jun-13 23:00N 50°34' E 000°11'5 9.0
2018-Jun-13 22:30N 50°35' E 000°18'4 8.5
2018-Jun-13 22:01N 50°37' E 000°24'4 8.0
2018-Jun-13 21:30N 50°38' E 000°30'4 7.7
2018-Jun-13 21:00N 50°40' E 000°36'4 8.1
2018-Jun-13 20:30N 50°42' E 000°41'4 8.7
2018-Jun-13 20:00N 50°44' E 000°46'5 9.3
2018-Jun-13 19:30N 50°47' E 000°52'510.1
2018-Jun-13 19:00N 50°50' E 000°59'610.9
2018-Jun-13 18:30N 50°53' E 001°06'611.5
2018-Jun-13 18:00N 50°57' E 001°13'611.8
2018-Jun-13 17:30N 51°00' E 001°20'611.7
2018-Jun-13 17:00N 51°04' E 001°28'510.9
2018-Jun-13 16:30N 51°08' E 001°34'5 9.8
2018-Jun-13 16:01N 51°11' E 001°40'5 9.2
2018-Jun-13 15:31N 51°14' E 001°45'4 8.7
2018-Jun-13 15:00N 51°17' E 001°50'4 8.3
2018-Jun-13 14:31N 51°21' E 001°54'4 7.9
2018-Jun-13 14:01N 51°24' E 001°58'4 7.1
2018-Jun-13 13:31N 51°25' E 002°03'5 9.1
2018-Jun-13 13:00N 51°23' E 002°09'4 8.7
2018-Jun-13 12:30N 51°21' E 002°16'4 7.3
2018-Jun-13 12:01N 51°22' E 002°22'4 7.7
2018-Jun-13 11:30N 51°23' E 002°28'4 8.1
2018-Jun-13 11:00N 51°23' E 002°34'4 8.5
2018-Jun-13 10:30N 51°23' E 002°41'4 7.7
2018-Jun-13 10:00N 51°22' E 002°47'5 9.4
2018-Jun-13 09:30N 51°23' E 002°54'510.0
2018-Jun-13 09:00N 51°24' E 003°02'5 9.7
2018-Jun-13 08:30N 51°24' E 003°10'5 9.7
2018-Jun-13 08:00N 51°25' E 003°17'510.0
2018-Jun-13 07:30N 51°25' E 003°25'510.7
2018-Jun-13 07:01N 51°25' E 003°34'5 9.9
2018-Jun-13 06:30N 51°24' E 003°42'611.2
2018-Jun-13 06:01N 51°21' E 003°49'1 2.1
2018-Jun-13 05:30N 51°20' E 003°49'0 0.8
2018-Jun-13 05:01N 51°19' E 003°49'2 4.6
2018-Jun-13 04:30N 51°17' E 003°50'3 6.2
2018-Jun-13 04:01N 51°14' E 003°49'2 4.8
2018-Jun-13 03:30N 51°12' E 003°48'1 2.5
2018-Jun-13 02:59N 51°11' E 003°48'0 0.0
2018-Jun-13 02:29N 51°11' E 003°48'0 0.0
2018-Jun-13 01:59N 51°11' E 003°48'0 0.0
2018-Jun-13 01:29N 51°11' E 003°48'0 0.0
2018-Jun-13 00:59N 51°11' E 003°48'0 0.0
2018-Jun-13 00:29N 51°11' E 003°48'0 0.0
2018-Jun-12 23:59N 51°11' E 003°48'0 0.0
2018-Jun-12 23:26N 51°11' E 003°48'0 0.0
2018-Jun-12 22:59N 51°11' E 003°48'0 0.0
2018-Jun-12 22:29N 51°11' E 003°48'0 0.0
2018-Jun-12 21:59N 51°11' E 003°48'0 0.0
2018-Jun-12 21:29N 51°11' E 003°48'0 0.0
2018-Jun-12 20:56N 51°11' E 003°48'0 0.0
2018-Jun-12 20:29N 51°11' E 003°48'0 0.0
2018-Jun-12 19:59N 51°11' E 003°48'0 0.0
2018-Jun-12 19:23N 51°11' E 003°48'0 0.0
2018-Jun-12 18:59N 51°11' E 003°48'0 0.0
2018-Jun-12 18:29N 51°11' E 003°48'0 0.0
2018-Jun-12 17:59N 51°11' E 003°48'0 0.0
2018-Jun-12 17:29N 51°11' E 003°48'0 0.0
2018-Jun-12 16:59N 51°11' E 003°48'0 0.0
2018-Jun-12 16:29N 51°11' E 003°48'0 0.0
2018-Jun-12 15:59N 51°11' E 003°48'0 0.0
2018-Jun-12 15:29N 51°11' E 003°48'0 0.0
2018-Jun-12 14:59N 51°11' E 003°48'0 0.0
2018-Jun-12 14:29N 51°11' E 003°48'0 0.0
2018-Jun-12 13:59N 51°11' E 003°48'0 0.0
2018-Jun-12 13:26N 51°11' E 003°48'0 0.0
2018-Jun-12 12:59N 51°11' E 003°48'0 0.0
2018-Jun-12 12:29N 51°11' E 003°48'0 0.0
2018-Jun-12 11:59N 51°11' E 003°48'0 0.0
2018-Jun-12 11:29N 51°11' E 003°48'0 0.0
2018-Jun-12 10:59N 51°11' E 003°48'0 0.0
2018-Jun-12 10:29N 51°11' E 003°48'0 0.0
2018-Jun-12 09:59N 51°11' E 003°48'0 0.0
2018-Jun-12 09:29N 51°11' E 003°48'0 0.0
2018-Jun-12 08:59N 51°11' E 003°48'0 0.0
2018-Jun-12 08:29N 51°11' E 003°48'0 0.0
2018-Jun-12 07:59N 51°11' E 003°48'0 0.0
2018-Jun-12 07:29N 51°11' E 003°48'0 0.0
2018-Jun-12 06:56N 51°11' E 003°48'0 0.0
2018-Jun-12 06:29N 51°11' E 003°48'0 0.0
2018-Jun-12 05:59N 51°11' E 003°48'0 0.0
2018-Jun-12 05:29N 51°11' E 003°48'0 0.0
2018-Jun-12 04:59N 51°11' E 003°48'0 0.0
2018-Jun-12 04:29N 51°11' E 003°48'0 0.0
2018-Jun-12 03:59N 51°11' E 003°48'0 0.0
2018-Jun-12 03:29N 51°11' E 003°48'0 0.0
2018-Jun-12 02:59N 51°11' E 003°48'0 0.0
2018-Jun-12 02:29N 51°11' E 003°48'0 0.0
2018-Jun-12 01:56N 51°11' E 003°48'0 0.0
2018-Jun-12 01:29N 51°11' E 003°48'0 0.0
2018-Jun-12 00:59N 51°11' E 003°48'0 0.0
2018-Jun-12 00:29N 51°11' E 003°48'0 0.0
2018-Jun-11 23:59N 51°11' E 003°48'0 0.0
2018-Jun-11 23:29N 51°11' E 003°48'0 0.0
2018-Jun-11 22:59N 51°11' E 003°48'0 0.0
2018-Jun-11 22:26N 51°11' E 003°48'0 0.0
2018-Jun-11 21:59N 51°11' E 003°48'0 0.0
2018-Jun-11 21:29N 51°11' E 003°48'0 0.0
2018-Jun-11 20:59N 51°11' E 003°48'0 0.0
2018-Jun-11 20:23N 51°11' E 003°48'0 0.0
2018-Jun-11 19:59N 51°11' E 003°48'0 0.0
2018-Jun-11 19:29N 51°11' E 003°48'0 0.0
2018-Jun-11 18:59N 51°11' E 003°48'0 0.0
2018-Jun-11 18:29N 51°11' E 003°48'0 0.0
2018-Jun-11 17:59N 51°11' E 003°48'0 0.0
2018-Jun-11 17:29N 51°11' E 003°48'0 0.0
2018-Jun-11 16:59N 51°11' E 003°48'0 0.0
2018-Jun-11 16:30N 51°11' E 003°48'0 0.0
2018-Jun-11 15:59N 51°11' E 003°48'0 0.0
2018-Jun-11 15:29N 51°11' E 003°48'0 0.0
2018-Jun-11 14:59N 51°11' E 003°48'0 0.0
2018-Jun-11 14:29N 51°11' E 003°48'0 0.0
2018-Jun-11 13:56N 51°11' E 003°48'0 0.0
2018-Jun-11 13:29N 51°11' E 003°48'0 0.0
2018-Jun-11 12:59N 51°11' E 003°48'0 0.2
2018-Jun-11 12:29N 51°11' E 003°48'1 2.5
2018-Jun-11 11:58N 51°09' E 003°47'0 0.0
2018-Jun-11 11:28N 51°09' E 003°47'0 0.0
2018-Jun-11 10:55N 51°09' E 003°47'0 0.0
2018-Jun-11 10:28N 51°09' E 003°47'0 0.0
2018-Jun-11 09:58N 51°09' E 003°47'0 0.0
2018-Jun-11 09:19N 51°09' E 003°47'0 0.0
2018-Jun-11 08:58N 51°09' E 003°47'0 0.0
2018-Jun-11 08:28N 51°09' E 003°47'0 0.0
2018-Jun-11 07:58N 51°09' E 003°47'0 0.0
2018-Jun-11 07:28N 51°09' E 003°47'0 0.0
2018-Jun-11 06:55N 51°09' E 003°47'0 0.0
2018-Jun-11 06:28N 51°09' E 003°47'0 0.0
2018-Jun-11 05:55N 51°09' E 003°47'0 0.0
2018-Jun-11 05:25N 51°09' E 003°47'0 0.0
2018-Jun-11 04:58N 51°09' E 003°47'0 0.0
2018-Jun-11 04:28N 51°09' E 003°47'0 0.0
2018-Jun-11 03:58N 51°09' E 003°47'0 0.0
2018-Jun-11 03:22N 51°09' E 003°47'0 0.0
2018-Jun-11 02:58N 51°09' E 003°47'0 0.0
2018-Jun-11 02:28N 51°09' E 003°47'0 0.0
2018-Jun-11 01:58N 51°09' E 003°47'0 0.0
2018-Jun-11 01:28N 51°09' E 003°47'0 0.0
2018-Jun-11 00:58N 51°09' E 003°47'0 0.0
2018-Jun-11 00:28N 51°09' E 003°47'0 0.0
2018-Jun-10 23:58N 51°09' E 003°47'0 0.0
2018-Jun-10 23:28N 51°09' E 003°47'0 0.0
2018-Jun-10 22:58N 51°09' E 003°47'0 0.0
2018-Jun-10 22:28N 51°09' E 003°47'0 0.0
2018-Jun-10 21:58N 51°09' E 003°47'0 0.0
2018-Jun-10 21:28N 51°09' E 003°47'0 0.0
2018-Jun-10 20:58N 51°09' E 003°47'0 0.0
2018-Jun-10 20:25N 51°09' E 003°47'0 0.0
2018-Jun-10 19:58N 51°09' E 003°47'0 0.0
2018-Jun-10 19:28N 51°09' E 003°47'0 0.0
2018-Jun-10 18:58N 51°09' E 003°47'0 0.0
2018-Jun-10 18:28N 51°09' E 003°47'0 0.0
2018-Jun-10 17:58N 51°09' E 003°47'0 0.0
2018-Jun-10 17:28N 51°09' E 003°47'0 0.0
2018-Jun-10 16:58N 51°09' E 003°47'0 0.0
2018-Jun-10 16:28N 51°09' E 003°47'0 0.0
2018-Jun-10 15:58N 51°09' E 003°47'0 0.0
2018-Jun-10 15:28N 51°09' E 003°47'0 0.0
2018-Jun-10 14:58N 51°09' E 003°47'0 0.0
2018-Jun-10 13:58N 51°09' E 003°47'0 0.0
2018-Jun-10 13:28N 51°09' E 003°47'0 0.0
2018-Jun-10 12:58N 51°09' E 003°47'0 0.0
2018-Jun-10 12:25N 51°09' E 003°47'0 0.0
2018-Jun-10 11:58N 51°09' E 003°47'0 0.0
2018-Jun-10 11:28N 51°09' E 003°47'0 0.0
2018-Jun-10 10:58N 51°09' E 003°47'0 0.0
2018-Jun-10 10:28N 51°09' E 003°47'0 0.0
2018-Jun-10 09:58N 51°09' E 003°47'0 0.0
2018-Jun-10 09:28N 51°09' E 003°47'0 0.0
2018-Jun-10 08:58N 51°09' E 003°47'0 0.0
2018-Jun-10 08:28N 51°09' E 003°47'0 0.0
2018-Jun-10 07:58N 51°09' E 003°47'0 0.0
2018-Jun-10 07:28N 51°09' E 003°47'0 0.0
2018-Jun-10 06:58N 51°09' E 003°47'0 0.0
2018-Jun-10 06:22N 51°09' E 003°47'0 0.0
2018-Jun-10 05:58N 51°09' E 003°47'0 0.0
2018-Jun-10 05:28N 51°09' E 003°47'0 0.0
2018-Jun-10 04:58N 51°09' E 003°47'0 0.0
2018-Jun-10 04:28N 51°09' E 003°47'0 0.0
2018-Jun-10 03:58N 51°09' E 003°47'0 0.0
2018-Jun-10 03:28N 51°09' E 003°47'0 0.0
2018-Jun-10 02:58N 51°09' E 003°47'0 0.0
2018-Jun-10 02:28N 51°09' E 003°47'0 0.0
2018-Jun-10 01:58N 51°09' E 003°47'0 0.0
2018-Jun-10 01:28N 51°09' E 003°47'0 0.0
2018-Jun-10 00:52N 51°09' E 003°47'0 0.0
2018-Jun-10 00:28N 51°09' E 003°47'0 0.0
2018-Jun-09 23:58N 51°09' E 003°47'0 0.0
2018-Jun-09 23:28N 51°09' E 003°47'0 0.0
2018-Jun-09 22:58N 51°09' E 003°47'0 0.0
2018-Jun-09 22:28N 51°09' E 003°47'0 0.0
2018-Jun-09 21:52N 51°09' E 003°47'0 0.0
2018-Jun-09 21:28N 51°09' E 003°47'0 0.0
2018-Jun-09 20:58N 51°09' E 003°47'0 0.0
2018-Jun-09 20:28N 51°09' E 003°47'0 0.0
2018-Jun-09 19:58N 51°09' E 003°47'0 0.0
2018-Jun-09 19:28N 51°09' E 003°47'0 0.0
2018-Jun-09 18:58N 51°09' E 003°47'0 0.0
2018-Jun-09 18:28N 51°09' E 003°47'0 0.0
2018-Jun-09 17:58N 51°09' E 003°47'0 0.0
2018-Jun-09 17:28N 51°09' E 003°47'0 0.0
2018-Jun-09 16:58N 51°09' E 003°47'0 0.0
2018-Jun-09 16:28N 51°09' E 003°47'0 0.0
2018-Jun-09 15:58N 51°09' E 003°47'0 0.0
2018-Jun-09 15:28N 51°09' E 003°47'0 0.0
2018-Jun-09 14:28N 51°09' E 003°47'0 0.0
2018-Jun-09 13:58N 51°09' E 003°47'0 0.0
2018-Jun-09 13:28N 51°09' E 003°47'0 0.0
2018-Jun-09 12:55N 51°09' E 003°47'0 0.0
2018-Jun-09 12:28N 51°09' E 003°47'0 0.0
2018-Jun-09 11:58N 51°09' E 003°47'0 0.0
2018-Jun-09 11:22N 51°09' E 003°47'0 0.0
2018-Jun-09 10:58N 51°09' E 003°47'0 0.0
2018-Jun-09 10:28N 51°09' E 003°47'0 0.0
2018-Jun-09 09:58N 51°09' E 003°47'0 0.0
2018-Jun-09 09:25N 51°09' E 003°47'0 0.0
2018-Jun-09 08:58N 51°09' E 003°47'0 0.0
2018-Jun-09 08:25N 51°09' E 003°47'0 0.0
2018-Jun-09 07:58N 51°09' E 003°47'0 0.0
2018-Jun-09 07:28N 51°09' E 003°47'0 0.0
2018-Jun-09 06:58N 51°09' E 003°47'0 0.0
2018-Jun-09 06:28N 51°09' E 003°47'0 0.0
2018-Jun-09 05:58N 51°09' E 003°47'0 0.0
2018-Jun-09 05:28N 51°09' E 003°47'0 0.0
2018-Jun-09 04:58N 51°09' E 003°47'0 0.0
2018-Jun-09 04:28N 51°09' E 003°47'0 0.0
2018-Jun-09 03:58N 51°09' E 003°47'0 0.0
2018-Jun-09 03:28N 51°09' E 003°47'0 0.0
2018-Jun-09 02:58N 51°09' E 003°47'0 0.0
2018-Jun-09 02:28N 51°09' E 003°47'0 0.0
2018-Jun-09 01:58N 51°09' E 003°47'0 0.0
2018-Jun-09 01:28N 51°09' E 003°47'0 0.0
2018-Jun-09 00:58N 51°09' E 003°47'0 0.0
2018-Jun-09 00:28N 51°09' E 003°47'0 0.0
2018-Jun-08 23:58N 51°09' E 003°47'0 0.0
2018-Jun-08 23:28N 51°09' E 003°47'0 0.0
2018-Jun-08 22:58N 51°09' E 003°47'0 0.0
2018-Jun-08 22:28N 51°09' E 003°47'0 0.0
2018-Jun-08 21:58N 51°09' E 003°47'0 0.0
2018-Jun-08 21:28N 51°09' E 003°47'0 0.0
2018-Jun-08 20:55N 51°09' E 003°47'0 0.0
2018-Jun-08 20:28N 51°09' E 003°47'0 0.0
2018-Jun-08 19:55N 51°09' E 003°47'0 0.0
2018-Jun-08 19:28N 51°09' E 003°47'0 0.0
2018-Jun-08 18:58N 51°09' E 003°47'0 0.0
2018-Jun-08 18:28N 51°09' E 003°47'0 0.0
2018-Jun-08 17:52N 51°09' E 003°47'0 0.0
2018-Jun-08 17:28N 51°09' E 003°47'0 0.0
2018-Jun-08 16:58N 51°09' E 003°47'0 0.0
2018-Jun-08 16:28N 51°09' E 003°47'0 0.0
2018-Jun-08 15:58N 51°09' E 003°47'0 0.0
2018-Jun-08 15:28N 51°09' E 003°47'0 0.0
2018-Jun-08 14:58N 51°09' E 003°47'0 0.0
2018-Jun-08 14:28N 51°09' E 003°47'0 0.0
2018-Jun-08 13:58N 51°09' E 003°47'0 0.0
2018-Jun-08 13:28N 51°09' E 003°47'0 0.0
2018-Jun-08 12:58N 51°09' E 003°47'0 0.0
2018-Jun-08 12:28N 51°09' E 003°47'0 0.0
2018-Jun-08 11:58N 51°09' E 003°47'0 0.0
2018-Jun-08 11:25N 51°09' E 003°47'0 0.0
2018-Jun-08 10:58N 51°09' E 003°47'0 0.0
2018-Jun-08 10:28N 51°09' E 003°47'0 0.0
2018-Jun-08 09:58N 51°09' E 003°47'0 0.0
2018-Jun-08 09:28N 51°09' E 003°47'0 0.0
2018-Jun-08 08:58N 51°09' E 003°47'0 0.0
2018-Jun-08 08:28N 51°09' E 003°47'0 0.0
2018-Jun-08 07:55N 51°09' E 003°47'0 0.0
2018-Jun-08 07:28N 51°09' E 003°47'0 0.0
2018-Jun-08 06:58N 51°09' E 003°47'0 0.0
2018-Jun-08 06:28N 51°09' E 003°47'0 0.0
2018-Jun-08 05:58N 51°09' E 003°47'0 0.0
2018-Jun-08 05:28N 51°09' E 003°47'0 0.0
2018-Jun-08 04:58N 51°09' E 003°47'0 0.0
2018-Jun-08 04:28N 51°09' E 003°47'0 0.0
2018-Jun-08 03:58N 51°09' E 003°47'0 0.0
2018-Jun-08 03:28N 51°09' E 003°47'0 0.0
2018-Jun-08 02:58N 51°09' E 003°47'0 0.0
2018-Jun-08 02:28N 51°09' E 003°47'0 0.0
2018-Jun-08 01:58N 51°09' E 003°47'0 0.0
2018-Jun-08 01:28N 51°09' E 003°47'0 0.0
2018-Jun-08 00:58N 51°09' E 003°47'0 0.0
2018-Jun-08 00:28N 51°09' E 003°47'0 0.0
2018-Jun-07 23:58N 51°09' E 003°47'0 0.0
2018-Jun-07 23:28N 51°09' E 003°47'0 0.0
2018-Jun-07 22:58N 51°09' E 003°47'0 0.0
2018-Jun-07 22:28N 51°09' E 003°47'0 0.0
2018-Jun-07 21:58N 51°09' E 003°47'0 0.0
2018-Jun-07 21:28N 51°09' E 003°47'0 0.0
2018-Jun-07 20:58N 51°09' E 003°47'0 0.0
2018-Jun-07 20:28N 51°09' E 003°47'0 0.0
2018-Jun-07 19:58N 51°09' E 003°47'0 0.0
2018-Jun-07 19:28N 51°09' E 003°47'0 0.0
2018-Jun-07 18:58N 51°09' E 003°47'  
Track history (hours):
 
Tides and Currents Weather Stations Pressure Air Temp Water Temp Dewpoint Dewpoint Depression Visibility Wind Speed Wind Dir Waves Ship Positions

Nomadic Bergen

Last reported at 2018-Jun-17 18:34 UTC. Time now 2018-Jun-18 02:13 UTC.
Position N 40°41' W 010°07'.

Length 108 m; draft 7.3 m.

Type: Ship. MMSI: 235070364.

Date/timePositionNaut miles runAvg speedWind from/ knotsBaromVisibWave heightAir tempDewpointWater temp
2018-Jun-17 18:34N 40°41' W 010°07'1 9.6
2018-Jun-17 18:27N 40°42' W 010°07'5 9.4
2018-Jun-17 17:55N 40°47' W 010°07'4 9.3
2018-Jun-17 17:28N 40°52' W 010°08'4 9.2
2018-Jun-17 17:00N 40°56' W 010°07'5 9.0
2018-Jun-17 16:30N 41°00' W 010°07'397 8.5
2018-Jun-15 17:48N 47°16' W 007°09'48 7.8
2018-Jun-15 11:38N 47°59' W 006°36'6 8.9
2018-Jun-15 10:58N 48°04' W 006°32'54 8.9
2018-Jun-15 04:53N 48°51' W 005°51'38 7.8
2018-Jun-14 23:58N 49°14' W 005°03'54 8.0
2018-Jun-14 17:10N 49°41' W 003°51'1 6.5
2018-Jun-14 17:00N 49°41' W 003°49'4 7.1
2018-Jun-14 16:29N 49°43' W 003°44'4 7.9
2018-Jun-14 15:55N 49°45' W 003°38'4 8.8
2018-Jun-14 15:31N 49°47' W 003°34'5 9.9
2018-Jun-14 15:00N 49°50' W 003°27'510.7
2018-Jun-14 14:31N 49°53' W 003°20'611.2
2018-Jun-14 14:00N 49°55' W 003°12'611.2
2018-Jun-14 13:30N 49°58' W 003°05'611.1
2018-Jun-14 13:00N 50°00' W 002°57'510.8
2018-Jun-14 12:30N 50°02' W 002°49'510.5
2018-Jun-14 11:59N 50°03' W 002°41'5 9.8
2018-Jun-14 11:30N 50°04' W 002°34'5 8.9
2018-Jun-14 11:00N 50°06' W 002°27'4 7.9
2018-Jun-14 10:30N 50°06' W 002°21'4 7.1
2018-Jun-14 10:00N 50°07' W 002°16'3 6.1
2018-Jun-14 09:31N 50°08' W 002°11'3 5.4
2018-Jun-14 09:00N 50°09' W 002°07'3 5.1
2018-Jun-14 08:30N 50°09' W 002°03'2 4.9
2018-Jun-14 08:00N 50°10' W 001°59'2 5.0
2018-Jun-14 07:30N 50°11' W 001°55'3 5.2
2018-Jun-14 07:00N 50°11' W 001°52'3 5.6
2018-Jun-14 06:30N 50°12' W 001°47'3 6.5
2018-Jun-14 06:00N 50°13' W 001°43'4 7.6
2018-Jun-14 05:30N 50°14' W 001°37'4 8.6
2018-Jun-14 05:00N 50°15' W 001°31'5 9.7
2018-Jun-14 04:30N 50°17' W 001°23'510.8
2018-Jun-14 04:00N 50°19' W 001°15'611.9
2018-Jun-14 03:30N 50°20' W 001°06'712.7
2018-Jun-14 02:58N 50°22' W 000°56'712.5
2018-Jun-14 02:26N 50°24' W 000°46'712.3
2018-Jun-14 01:49N 50°26' W 000°35'412.0
2018-Jun-14 01:30N 50°27' W 000°29'611.6
2018-Jun-14 01:01N 50°29' W 000°20'611.0
2018-Jun-14 00:29N 50°30' W 000°11'510.5
2018-Jun-14 00:00N 50°32' W 000°04'5 9.9
2018-Jun-13 23:29N 50°33' E 000°04'5 9.4
2018-Jun-13 23:00N 50°34' E 000°11'5 9.0
2018-Jun-13 22:30N 50°35' E 000°18'4 8.5
2018-Jun-13 22:01N 50°37' E 000°24'4 8.0
2018-Jun-13 21:30N 50°38' E 000°30'4 7.7
2018-Jun-13 21:00N 50°40' E 000°36'4 8.1
2018-Jun-13 20:30N 50°42' E 000°41'4 8.7
2018-Jun-13 20:00N 50°44' E 000°46'5 9.3
2018-Jun-13 19:30N 50°47' E 000°52'510.1
2018-Jun-13 19:00N 50°50' E 000°59'610.9
2018-Jun-13 18:30N 50°53' E 001°06'611.5
2018-Jun-13 18:00N 50°57' E 001°13'611.8
2018-Jun-13 17:30N 51°00' E 001°20'611.7
2018-Jun-13 17:00N 51°04' E 001°28'510.9
2018-Jun-13 16:30N 51°08' E 001°34'5 9.8
2018-Jun-13 16:01N 51°11' E 001°40'5 9.2
2018-Jun-13 15:31N 51°14' E 001°45'4 8.7
2018-Jun-13 15:00N 51°17' E 001°50'4 8.3
2018-Jun-13 14:31N 51°21' E 001°54'4 7.9
2018-Jun-13 14:01N 51°24' E 001°58'4 7.1
2018-Jun-13 13:31N 51°25' E 002°03'5 9.1
2018-Jun-13 13:00N 51°23' E 002°09'4 8.7
2018-Jun-13 12:30N 51°21' E 002°16'4 7.3
2018-Jun-13 12:01N 51°22' E 002°22'4 7.7
2018-Jun-13 11:30N 51°23' E 002°28'4 8.1
2018-Jun-13 11:00N 51°23' E 002°34'4 8.5
2018-Jun-13 10:30N 51°23' E 002°41'4 7.7
2018-Jun-13 10:00N 51°22' E 002°47'5 9.4
2018-Jun-13 09:30N 51°23' E 002°54'510.0
2018-Jun-13 09:00N 51°24' E 003°02'5 9.7
2018-Jun-13 08:30N 51°24' E 003°10'5 9.7
2018-Jun-13 08:00N 51°25' E 003°17'510.0
2018-Jun-13 07:30N 51°25' E 003°25'510.7
2018-Jun-13 07:01N 51°25' E 003°34'5 9.9
2018-Jun-13 06:30N 51°24' E 003°42'611.2
2018-Jun-13 06:01N 51°21' E 003°49'1 2.1
2018-Jun-13 05:30N 51°20' E 003°49'0 0.8
2018-Jun-13 05:01N 51°19' E 003°49'2 4.6
2018-Jun-13 04:30N 51°17' E 003°50'3 6.2
2018-Jun-13 04:01N 51°14' E 003°49'2 4.8
2018-Jun-13 03:30N 51°12' E 003°48'1 2.5
2018-Jun-13 02:59N 51°11' E 003°48'0 0.0
2018-Jun-13 02:29N 51°11' E 003°48'0 0.0
2018-Jun-13 01:59N 51°11' E 003°48'0 0.0
2018-Jun-13 01:29N 51°11' E 003°48'0 0.0
2018-Jun-13 00:59N 51°11' E 003°48'0 0.0
2018-Jun-13 00:29N 51°11' E 003°48'0 0.0
2018-Jun-12 23:59N 51°11' E 003°48'0 0.0
2018-Jun-12 23:26N 51°11' E 003°48'0 0.0
2018-Jun-12 22:59N 51°11' E 003°48'0 0.0
2018-Jun-12 22:29N 51°11' E 003°48'0 0.0
2018-Jun-12 21:59N 51°11' E 003°48'0 0.0
2018-Jun-12 21:29N 51°11' E 003°48'0 0.0
2018-Jun-12 20:56N 51°11' E 003°48'0 0.0
2018-Jun-12 20:29N 51°11' E 003°48'0 0.0
2018-Jun-12 19:59N 51°11' E 003°48'0 0.0
2018-Jun-12 19:23N 51°11' E 003°48'0 0.0
2018-Jun-12 18:59N 51°11' E 003°48'0 0.0
2018-Jun-12 18:29N 51°11' E 003°48'0 0.0
2018-Jun-12 17:59N 51°11' E 003°48'0 0.0
2018-Jun-12 17:29N 51°11' E 003°48'0 0.0
2018-Jun-12 16:59N 51°11' E 003°48'0 0.0
2018-Jun-12 16:29N 51°11' E 003°48'0 0.0
2018-Jun-12 15:59N 51°11' E 003°48'0 0.0
2018-Jun-12 15:29N 51°11' E 003°48'0 0.0
2018-Jun-12 14:59N 51°11' E 003°48'0 0.0
2018-Jun-12 14:29N 51°11' E 003°48'0 0.0
2018-Jun-12 13:59N 51°11' E 003°48'0 0.0
2018-Jun-12 13:26N 51°11' E 003°48'0 0.0
2018-Jun-12 12:59N 51°11' E 003°48'0 0.0
2018-Jun-12 12:29N 51°11' E 003°48'0 0.0
2018-Jun-12 11:59N 51°11' E 003°48'0 0.0
2018-Jun-12 11:29N 51°11' E 003°48'0 0.0
2018-Jun-12 10:59N 51°11' E 003°48'0 0.0
2018-Jun-12 10:29N 51°11' E 003°48'0 0.0
2018-Jun-12 09:59N 51°11' E 003°48'0 0.0
2018-Jun-12 09:29N 51°11' E 003°48'0 0.0
2018-Jun-12 08:59N 51°11' E 003°48'0 0.0
2018-Jun-12 08:29N 51°11' E 003°48'0 0.0
2018-Jun-12 07:59N 51°11' E 003°48'0 0.0
2018-Jun-12 07:29N 51°11' E 003°48'0 0.0
2018-Jun-12 06:56N 51°11' E 003°48'0 0.0
2018-Jun-12 06:29N 51°11' E 003°48'0 0.0
2018-Jun-12 05:59N 51°11' E 003°48'0 0.0
2018-Jun-12 05:29N 51°11' E 003°48'0 0.0
2018-Jun-12 04:59N 51°11' E 003°48'0 0.0
2018-Jun-12 04:29N 51°11' E 003°48'0 0.0
2018-Jun-12 03:59N 51°11' E 003°48'0 0.0
2018-Jun-12 03:29N 51°11' E 003°48'0 0.0
2018-Jun-12 02:59N 51°11' E 003°48'0 0.0
2018-Jun-12 02:29N 51°11' E 003°48'0 0.0
2018-Jun-12 01:56N 51°11' E 003°48'0 0.0
2018-Jun-12 01:29N 51°11' E 003°48'0 0.0
2018-Jun-12 00:59N 51°11' E 003°48'0 0.0
2018-Jun-12 00:29N 51°11' E 003°48'0 0.0
2018-Jun-11 23:59N 51°11' E 003°48'0 0.0
2018-Jun-11 23:29N 51°11' E 003°48'0 0.0
2018-Jun-11 22:59N 51°11' E 003°48'0 0.0
2018-Jun-11 22:26N 51°11' E 003°48'0 0.0
2018-Jun-11 21:59N 51°11' E 003°48'0 0.0
2018-Jun-11 21:29N 51°11' E 003°48'0 0.0
2018-Jun-11 20:59N 51°11' E 003°48'0 0.0
2018-Jun-11 20:23N 51°11' E 003°48'0 0.0
2018-Jun-11 19:59N 51°11' E 003°48'0 0.0
2018-Jun-11 19:29N 51°11' E 003°48'0 0.0
2018-Jun-11 18:59N 51°11' E 003°48'0 0.0
2018-Jun-11 18:29N 51°11' E 003°48'0 0.0
2018-Jun-11 17:59N 51°11' E 003°48'0 0.0
2018-Jun-11 17:29N 51°11' E 003°48'0 0.0
2018-Jun-11 16:59N 51°11' E 003°48'0 0.0
2018-Jun-11 16:30N 51°11' E 003°48'0 0.0
2018-Jun-11 15:59N 51°11' E 003°48'0 0.0
2018-Jun-11 15:29N 51°11' E 003°48'0 0.0
2018-Jun-11 14:59N 51°11' E 003°48'0 0.0
2018-Jun-11 14:29N 51°11' E 003°48'0 0.0
2018-Jun-11 13:56N 51°11' E 003°48'0 0.0
2018-Jun-11 13:29N 51°11' E 003°48'0 0.0
2018-Jun-11 12:59N 51°11' E 003°48'0 0.2
2018-Jun-11 12:29N 51°11' E 003°48'1 2.5
2018-Jun-11 11:58N 51°09' E 003°47'0 0.0
2018-Jun-11 11:28N 51°09' E 003°47'0 0.0
2018-Jun-11 10:55N 51°09' E 003°47'0 0.0
2018-Jun-11 10:28N 51°09' E 003°47'0 0.0
2018-Jun-11 09:58N 51°09' E 003°47'0 0.0
2018-Jun-11 09:19N 51°09' E 003°47'0 0.0
2018-Jun-11 08:58N 51°09' E 003°47'0 0.0
2018-Jun-11 08:28N 51°09' E 003°47'0 0.0
2018-Jun-11 07:58N 51°09' E 003°47'0 0.0
2018-Jun-11 07:28N 51°09' E 003°47'0 0.0
2018-Jun-11 06:55N 51°09' E 003°47'0 0.0
2018-Jun-11 06:28N 51°09' E 003°47'0 0.0
2018-Jun-11 05:55N 51°09' E 003°47'0 0.0
2018-Jun-11 05:25N 51°09' E 003°47'0 0.0
2018-Jun-11 04:58N 51°09' E 003°47'0 0.0
2018-Jun-11 04:28N 51°09' E 003°47'0 0.0
2018-Jun-11 03:58N 51°09' E 003°47'0 0.0
2018-Jun-11 03:22N 51°09' E 003°47'0 0.0
2018-Jun-11 02:58N 51°09' E 003°47'0 0.0
2018-Jun-11 02:28N 51°09' E 003°47'0 0.0
2018-Jun-11 01:58N 51°09' E 003°47'0 0.0
2018-Jun-11 01:28N 51°09' E 003°47'0 0.0
2018-Jun-11 00:58N 51°09' E 003°47'0 0.0
2018-Jun-11 00:28N 51°09' E 003°47'0 0.0
2018-Jun-10 23:58N 51°09' E 003°47'0 0.0
2018-Jun-10 23:28N 51°09' E 003°47'0 0.0
2018-Jun-10 22:58N 51°09' E 003°47'0 0.0
2018-Jun-10 22:28N 51°09' E 003°47'0 0.0
2018-Jun-10 21:58N 51°09' E 003°47'0 0.0
2018-Jun-10 21:28N 51°09' E 003°47'0 0.0
2018-Jun-10 20:58N 51°09' E 003°47'0 0.0
2018-Jun-10 20:25N 51°09' E 003°47'0 0.0
2018-Jun-10 19:58N 51°09' E 003°47'0 0.0
2018-Jun-10 19:28N 51°09' E 003°47'0 0.0
2018-Jun-10 18:58N 51°09' E 003°47'0 0.0
2018-Jun-10 18:28N 51°09' E 003°47'0 0.0
2018-Jun-10 17:58N 51°09' E 003°47'0 0.0
2018-Jun-10 17:28N 51°09' E 003°47'0 0.0
2018-Jun-10 16:58N 51°09' E 003°47'0 0.0
2018-Jun-10 16:28N 51°09' E 003°47'0 0.0
2018-Jun-10 15:58N 51°09' E 003°47'0 0.0
2018-Jun-10 15:28N 51°09' E 003°47'0 0.0
2018-Jun-10 14:58N 51°09' E 003°47'0 0.0
2018-Jun-10 13:58N 51°09' E 003°47'0 0.0
2018-Jun-10 13:28N 51°09' E 003°47'0 0.0
2018-Jun-10 12:58N 51°09' E 003°47'0 0.0
2018-Jun-10 12:25N 51°09' E 003°47'0 0.0
2018-Jun-10 11:58N 51°09' E 003°47'0 0.0
2018-Jun-10 11:28N 51°09' E 003°47'0 0.0
2018-Jun-10 10:58N 51°09' E 003°47'0 0.0
2018-Jun-10 10:28N 51°09' E 003°47'0 0.0
2018-Jun-10 09:58N 51°09' E 003°47'0 0.0
2018-Jun-10 09:28N 51°09' E 003°47'0 0.0
2018-Jun-10 08:58N 51°09' E 003°47'0 0.0
2018-Jun-10 08:28N 51°09' E 003°47'0 0.0
2018-Jun-10 07:58N 51°09' E 003°47'0 0.0
2018-Jun-10 07:28N 51°09' E 003°47'0 0.0
2018-Jun-10 06:58N 51°09' E 003°47'0 0.0
2018-Jun-10 06:22N 51°09' E 003°47'0 0.0
2018-Jun-10 05:58N 51°09' E 003°47'0 0.0
2018-Jun-10 05:28N 51°09' E 003°47'0 0.0
2018-Jun-10 04:58N 51°09' E 003°47'0 0.0
2018-Jun-10 04:28N 51°09' E 003°47'0 0.0
2018-Jun-10 03:58N 51°09' E 003°47'0 0.0
2018-Jun-10 03:28N 51°09' E 003°47'0 0.0
2018-Jun-10 02:58N 51°09' E 003°47'0 0.0
2018-Jun-10 02:28N 51°09' E 003°47'0 0.0
2018-Jun-10 01:58N 51°09' E 003°47'0 0.0
2018-Jun-10 01:28N 51°09' E 003°47'0 0.0
2018-Jun-10 00:52N 51°09' E 003°47'0 0.0
2018-Jun-10 00:28N 51°09' E 003°47'0 0.0
2018-Jun-09 23:58N 51°09' E 003°47'0 0.0
2018-Jun-09 23:28N 51°09' E 003°47'0 0.0
2018-Jun-09 22:58N 51°09' E 003°47'0 0.0
2018-Jun-09 22:28N 51°09' E 003°47'0 0.0
2018-Jun-09 21:52N 51°09' E 003°47'0 0.0
2018-Jun-09 21:28N 51°09' E 003°47'0 0.0
2018-Jun-09 20:58N 51°09' E 003°47'0 0.0
2018-Jun-09 20:28N 51°09' E 003°47'0 0.0
2018-Jun-09 19:58N 51°09' E 003°47'0 0.0
2018-Jun-09 19:28N 51°09' E 003°47'0 0.0
2018-Jun-09 18:58N 51°09' E 003°47'0 0.0
2018-Jun-09 18:28N 51°09' E 003°47'0 0.0
2018-Jun-09 17:58N 51°09' E 003°47'0 0.0
2018-Jun-09 17:28N 51°09' E 003°47'0 0.0
2018-Jun-09 16:58N 51°09' E 003°47'0 0.0
2018-Jun-09 16:28N 51°09' E 003°47'0 0.0
2018-Jun-09 15:58N 51°09' E 003°47'0 0.0
2018-Jun-09 15:28N 51°09' E 003°47'0 0.0
2018-Jun-09 14:28N 51°09' E 003°47'0 0.0
2018-Jun-09 13:58N 51°09' E 003°47'0 0.0
2018-Jun-09 13:28N 51°09' E 003°47'0 0.0
2018-Jun-09 12:55N 51°09' E 003°47'0 0.0
2018-Jun-09 12:28N 51°09' E 003°47'0 0.0
2018-Jun-09 11:58N 51°09' E 003°47'0 0.0
2018-Jun-09 11:22N 51°09' E 003°47'0 0.0
2018-Jun-09 10:58N 51°09' E 003°47'0 0.0
2018-Jun-09 10:28N 51°09' E 003°47'0 0.0
2018-Jun-09 09:58N 51°09' E 003°47'0 0.0
2018-Jun-09 09:25N 51°09' E 003°47'0 0.0
2018-Jun-09 08:58N 51°09' E 003°47'0 0.0
2018-Jun-09 08:25N 51°09' E 003°47'0 0.0
2018-Jun-09 07:58N 51°09' E 003°47'0 0.0
2018-Jun-09 07:28N 51°09' E 003°47'0 0.0
2018-Jun-09 06:58N 51°09' E 003°47'0 0.0
2018-Jun-09 06:28N 51°09' E 003°47'0 0.0
2018-Jun-09 05:58N 51°09' E 003°47'0 0.0
2018-Jun-09 05:28N 51°09' E 003°47'0 0.0
2018-Jun-09 04:58N 51°09' E 003°47'0 0.0
2018-Jun-09 04:28N 51°09' E 003°47'0 0.0
2018-Jun-09 03:58N 51°09' E 003°47'0 0.0
2018-Jun-09 03:28N 51°09' E 003°47'0 0.0
2018-Jun-09 02:58N 51°09' E 003°47'0 0.0
2018-Jun-09 02:28N 51°09' E 003°47'0 0.0
2018-Jun-09 01:58N 51°09' E 003°47'0 0.0
2018-Jun-09 01:28N 51°09' E 003°47'0 0.0
2018-Jun-09 00:58N 51°09' E 003°47'0 0.0
2018-Jun-09 00:28N 51°09' E 003°47'0 0.0
2018-Jun-08 23:58N 51°09' E 003°47'0 0.0
2018-Jun-08 23:28N 51°09' E 003°47'0 0.0
2018-Jun-08 22:58N 51°09' E 003°47'0 0.0
2018-Jun-08 22:28N 51°09' E 003°47'0 0.0
2018-Jun-08 21:58N 51°09' E 003°47'0 0.0
2018-Jun-08 21:28N 51°09' E 003°47'0 0.0
2018-Jun-08 20:55N 51°09' E 003°47'0 0.0
2018-Jun-08 20:28N 51°09' E 003°47'0 0.0
2018-Jun-08 19:55N 51°09' E 003°47'0 0.0
2018-Jun-08 19:28N 51°09' E 003°47'0 0.0
2018-Jun-08 18:58N 51°09' E 003°47'0 0.0
2018-Jun-08 18:28N 51°09' E 003°47'0 0.0
2018-Jun-08 17:52N 51°09' E 003°47'0 0.0
2018-Jun-08 17:28N 51°09' E 003°47'0 0.0
2018-Jun-08 16:58N 51°09' E 003°47'0 0.0
2018-Jun-08 16:28N 51°09' E 003°47'0 0.0
2018-Jun-08 15:58N 51°09' E 003°47'0 0.0
2018-Jun-08 15:28N 51°09' E 003°47'0 0.0
2018-Jun-08 14:58N 51°09' E 003°47'0 0.0
2018-Jun-08 14:28N 51°09' E 003°47'0 0.0
2018-Jun-08 13:58N 51°09' E 003°47'0 0.0
2018-Jun-08 13:28N 51°09' E 003°47'0 0.0
2018-Jun-08 12:58N 51°09' E 003°47'0 0.0
2018-Jun-08 12:28N 51°09' E 003°47'0 0.0
2018-Jun-08 11:58N 51°09' E 003°47'0 0.0
2018-Jun-08 11:25N 51°09' E 003°47'0 0.0
2018-Jun-08 10:58N 51°09' E 003°47'0 0.0
2018-Jun-08 10:28N 51°09' E 003°47'0 0.0
2018-Jun-08 09:58N 51°09' E 003°47'0 0.0
2018-Jun-08 09:28N 51°09' E 003°47'0 0.0
2018-Jun-08 08:58N 51°09' E 003°47'0 0.0
2018-Jun-08 08:28N 51°09' E 003°47'0 0.0
2018-Jun-08 07:55N 51°09' E 003°47'0 0.0
2018-Jun-08 07:28N 51°09' E 003°47'0 0.0
2018-Jun-08 06:58N 51°09' E 003°47'0 0.0
2018-Jun-08 06:28N 51°09' E 003°47'0 0.0
2018-Jun-08 05:58N 51°09' E 003°47'0 0.0
2018-Jun-08 05:28N 51°09' E 003°47'0 0.0
2018-Jun-08 04:58N 51°09' E 003°47'0 0.0
2018-Jun-08 04:28N 51°09' E 003°47'0 0.0
2018-Jun-08 03:58N 51°09' E 003°47'0 0.0
2018-Jun-08 03:28N 51°09' E 003°47'0 0.0
2018-Jun-08 02:58N 51°09' E 003°47'0 0.0
2018-Jun-08 02:28N 51°09' E 003°47'0 0.0
2018-Jun-08 01:58N 51°09' E 003°47'0 0.0
2018-Jun-08 01:28N 51°09' E 003°47'0 0.0
2018-Jun-08 00:58N 51°09' E 003°47'0 0.0
2018-Jun-08 00:28N 51°09' E 003°47'0 0.0
2018-Jun-07 23:58N 51°09' E 003°47'0 0.0
2018-Jun-07 23:28N 51°09' E 003°47'0 0.0
2018-Jun-07 22:58N 51°09' E 003°47'0 0.0
2018-Jun-07 22:28N 51°09' E 003°47'0 0.0
2018-Jun-07 21:58N 51°09' E 003°47'0 0.0
2018-Jun-07 21:28N 51°09' E 003°47'0 0.0
2018-Jun-07 20:58N 51°09' E 003°47'0 0.0
2018-Jun-07 20:28N 51°09' E 003°47'0 0.0
2018-Jun-07 19:58N 51°09' E 003°47'0 0.0
2018-Jun-07 19:28N 51°09' E 003°47'0 0.0
2018-Jun-07 18:58N 51°09' E 003°47'  

Dump ship's entire track history